KMSY/MSY METAR and TAF weather

Enter ICAO airport designator
Station Type Date Time Source
KMSY METAR 2021/03/04 21:53 UTC NOAA

KMSY 042153Z 00000KT 10SM FEW250 20/03 A3009 RMK AO2 SLP193 T02000028


Station Type Date Time Source
KMSY Decoded METAR 2021/03/04 21:53 UTC NOAA

NEW ORLEANS INTERNATIONAL AIRPORT, LA, United States (KMSY) 30-00N 90-15W 5M
Mar 04, 2021 - 04:53 PM EST / 2021.03.04 2153 UTC
Wind: Calm:0
Visibility: 10 mile(s):0
Sky conditions: mostly clear
Temperature: 68.0 F (20.0 C)
Dew Point: 37.0 F (2.8 C)
Relative Humidity: 31%
Pressure (altimeter): 30.09 in. Hg (1018 hPa)
ob: KMSY 042153Z 00000KT 10SM FEW250 20/03 A3009 RMK AO2 SLP193 T02000028
cycle: 22

Station Type Date Time Source
KMSY TAF 2021/03/04 18:42 UTC NOAA

TAF KMSY 041739Z 0418/0524 03005KT P6SM SKC
FM051600 11007KT P6SM OVC250
FM052100 13005KT P6SM BKN035

Example: see airport list